Airfield :
LOGIN :

Register | Disclaimer

   EN    FR    IT 

 










Legend :    VFR   Marginal VFR   IFR   Intensive IFR   Very Intensive IFR
Visi :
Ceiling :
>= 8 km
>= 3000ft
5 to 8 km
1000 to 3000 ft
1500m to 5 km
500 to 1000 ft
800 to 1500m
200 to 500 ft
< 800m
< 200 ft
Symbols :   Thunderstorms  Fog  Heavy snow  Heavy precipitations  Wind > 20 kt
SIGMETs :     Misc.  Thunderstorms  Icing  Turbulence  Mountain Waves  Volcanic Ashes






- Airport Elevation : 100 ft
- IATA code : DCI


LIED - Decimomannu Air Base

CURRENT METAR :
  • 120855Z 15007KT CAVOK 31/22 Q1015 RMK FEW FEW200 VIS MIN 9999 WIND THR35 17008KT WIND THR17 /////KT BLU

EXPIRED METARs :
  • 120755Z 13005KT CAVOK 30/19 Q1015 RMK FEW FEW200 VIS MIN 9999 WIND THR35 14007KT WIND THR17 /////KT BLU
  • 120655Z 30002KT CAVOK 25/19 Q1014 RMK SKC VIS MIN 9999 WIND THR35 33002KT WIND THR17 /////KT BLU

TAF TAF LIED
Valid from the 12 at 09:00 until the 12 at 18:00 UTC


120800Z 1209/1218 31005KT CAVOK
BECMG 1210/1212 15014KT



MET'MAP, your aeronautical weather chart ! - Copyright ORBIFLY December 2007 - Disclaimer

ORBIFLY MET'MAP TEAM :

Programming & Development : Alexandra Zaïnal
Concept & original design : Baudouin d'Aumeries
Assistance for programming : Marc-Olivier Méhu
Technical & hardware support : Manuel Goepfert

Contact : metmap@orbifly.com




SOURCES & CREDITS :

   NOAA